Huvudsida
METAR-TAF:

METAR-TAF

Flygplatser :

Nyslotts flygplats

Nyslott, Finland

latitud: 61-57N, longitud: 028-57E, höjd: 95 m

Aktuellt väderrapport

Denna rapport gjordes för 12 minuter sedan, klockan 22:50 UTC
Vind 4 kt från nordväst
Temperatur -16°C
Fuktighet 84%
Tryck 1012 hPa
Sikt 10 km eller mer
Inga moln under 1 500 m eller inga cumulonimbus

METAR: EFSA 232250Z AUTO 32004KT CAVOK M16/M18 Q1012

Tid: 01:02 (23:02 UTC)

Väderprognos

Denna rapport gjordes för 8 timmar och 31 minuter sedan, klockan 14:31 UTC
Prognos gäller från 23 kl. 15 UTC till 23 kl. 19 UTC
Vind 2 kt från syd/sydväst
Sikt: 4000 m
Brutna moln på en höjd av 3000 ft
lätt snö
Blir
från 23 kl. 15 UTC till 23 kl. 17 UTC
Sikt 10 km eller mer

TAF: EFSA 231431Z 2315/2319 20002KT 4000 -SN BKN030 BECMG 2315/2317 9999 NSW

Aktuella väderrapporter och prognoser från 4000 flygplatser (METAR- och TAF-rapporter).

De tillgängliga stationerna syns som gula och röda prickar på kartan.

För musen över prickarna för att se namnen på stationerna.

Klicka sedan för att få väderrapporter och prognoser.

För att ändra kartan: Klicka på de gröna knapparna med ett svart kors på för att zooma in; den gröna knappen med ett streck på för att zooma ut; eller på de gröna pilarna för angränsande kartor.


METAR-TAF: